createdAt,value
2016-06-29T00:00:05.499Z,22.81
2016-06-29T00:01:05.474Z,22.85
2016-06-29T00:02:05.484Z,22.79
2016-06-29T00:03:05.467Z,22.84
2016-06-29T00:04:05.428Z,22.81
2016-06-29T00:05:05.411Z,22.84
2016-06-29T00:06:05.405Z,22.81
2016-06-29T00:07:05.386Z,22.79
2016-06-29T00:08:05.365Z,22.86
2016-06-29T00:09:05.348Z,22.82
2016-06-29T00:10:05.348Z,22.82
2016-06-29T00:11:05.318Z,22.84
2016-06-29T00:12:05.308Z,22.86
2016-06-29T00:13:05.297Z,22.85
2016-06-29T00:14:05.272Z,22.84
2016-06-29T00:15:05.258Z,22.78
2016-06-29T00:16:05.263Z,22.85
2016-06-29T00:17:05.219Z,22.86
2016-06-29T00:18:05.222Z,22.84
2016-06-29T00:19:05.202Z,22.81
2016-06-29T00:20:05.184Z,22.86
2016-06-29T00:21:05.176Z,22.82
2016-06-29T00:22:05.166Z,22.84
2016-06-29T00:23:05.147Z,22.81
2016-06-29T00:24:05.176Z,22.82
2016-06-29T00:25:05.135Z,22.79
2016-06-29T00:26:05.114Z,22.86
2016-06-29T00:27:05.078Z,22.82
2016-06-29T00:28:05.081Z,22.88
2016-06-29T00:29:05.048Z,22.82
2016-06-29T00:30:05.039Z,22.85
2016-06-29T00:31:05.040Z,22.79
2016-06-29T00:32:05.033Z,22.85
2016-06-29T00:33:04.996Z,22.85
2016-06-29T00:34:05.019Z,22.84
2016-06-29T00:35:04.966Z,22.85
2016-06-29T00:36:04.990Z,22.84
2016-06-29T00:37:04.934Z,22.84
2016-06-29T00:38:04.939Z,22.85
2016-06-29T00:39:04.916Z,22.78
2016-06-29T00:40:04.907Z,22.84
2016-06-29T00:41:04.877Z,22.88
2016-06-29T00:42:04.892Z,22.81
2016-06-29T00:43:04.871Z,22.79
2016-06-29T00:44:04.910Z,22.81
2016-06-29T00:45:04.815Z,22.85
2016-06-29T00:46:04.226Z,22.85
2016-06-29T00:47:04.788Z,22.84
2016-06-29T00:48:04.175Z,22.82
2016-06-29T00:49:04.778Z,22.81
2016-06-29T00:50:04.757Z,22.84
2016-06-29T00:51:04.746Z,22.82
2016-06-29T00:52:04.723Z,22.88
2016-06-29T00:53:04.710Z,22.85
2016-06-29T00:54:04.701Z,22.81
2016-06-29T00:55:04.683Z,22.86
2016-06-29T00:56:04.686Z,22.88
2016-06-29T00:57:04.654Z,22.85
2016-06-29T00:58:04.641Z,22.82
2016-06-29T00:59:04.615Z,22.88
2016-06-29T01:00:04.611Z,22.82
2016-06-29T01:01:04.598Z,22.85
2016-06-29T01:02:04.586Z,22.79
2016-06-29T01:03:04.571Z,22.86
2016-06-29T01:04:03.940Z,22.78
2016-06-29T01:05:04.538Z,22.81
2016-06-29T01:06:04.540Z,22.79
2016-06-29T01:07:04.510Z,22.79
2016-06-29T01:08:03.889Z,22.82
2016-06-29T01:09:04.474Z,22.79
2016-06-29T01:10:03.872Z,22.78
2016-06-29T01:11:04.432Z,22.81
2016-06-29T01:12:04.430Z,22.84
2016-06-29T01:13:04.417Z,22.78
2016-06-29T01:14:03.803Z,22.76
2016-06-29T01:15:04.394Z,22.82
2016-06-29T01:16:04.367Z,22.84
2016-06-29T01:17:04.359Z,22.78
2016-06-29T01:18:04.415Z,22.81
2016-06-29T01:19:04.314Z,22.81
2016-06-29T01:20:04.323Z,22.84
2016-06-29T01:21:04.303Z,22.84
2016-06-29T01:22:03.680Z,22.84
2016-06-29T01:23:04.259Z,22.81
2016-06-29T01:24:04.265Z,22.85
2016-06-29T01:25:04.225Z,22.79
2016-06-29T01:26:04.222Z,22.76
2016-06-29T01:27:04.222Z,22.82
2016-06-29T01:28:04.201Z,22.84
2016-06-29T01:29:04.194Z,22.78
2016-06-29T01:30:04.169Z,22.74
2016-06-29T01:31:04.160Z,22.81
2016-06-29T01:32:04.153Z,22.82
2016-06-29T01:33:04.121Z,22.81
2016-06-29T01:34:04.100Z,22.78
2016-06-29T01:35:04.085Z,22.81
2016-06-29T01:36:04.073Z,22.81
2016-06-29T01:37:03.466Z,22.78
2016-06-29T01:38:04.275Z,22.75
2016-06-29T01:39:04.056Z,22.78
2016-06-29T01:40:03.416Z,22.76
2016-06-29T01:41:04.006Z,22.76
2016-06-29T01:42:03.998Z,22.81
2016-06-29T01:43:03.975Z,22.75
2016-06-29T01:44:03.955Z,22.78
2016-06-29T01:45:03.962Z,22.76
2016-06-29T01:46:03.916Z,22.78
2016-06-29T01:47:03.915Z,22.84
2016-06-29T01:48:03.900Z,22.78
2016-06-29T01:49:03.887Z,22.78
2016-06-29T01:50:03.880Z,22.82
2016-06-29T01:51:03.854Z,22.76
2016-06-29T01:52:03.837Z,22.74
2016-06-29T01:53:03.832Z,22.76
2016-06-29T01:54:03.824Z,22.81
2016-06-29T01:55:03.791Z,22.76
2016-06-29T01:56:03.793Z,22.79
2016-06-29T01:57:03.812Z,22.82
2016-06-29T01:58:03.754Z,22.76
2016-06-29T01:59:03.764Z,22.74
2016-06-29T02:00:03.117Z,22.72
2016-06-29T02:01:03.698Z,22.76
2016-06-29T02:02:03.699Z,22.85
2016-06-29T02:03:03.666Z,22.75
2016-06-29T02:04:03.674Z,22.76
2016-06-29T02:05:03.653Z,22.76
2016-06-29T02:06:03.634Z,22.78
2016-06-29T02:07:03.634Z,22.76
2016-06-29T02:08:03.614Z,22.78
2016-06-29T02:09:03.582Z,22.78
2016-06-29T02:10:03.573Z,22.78
2016-06-29T02:11:03.601Z,22.81
2016-06-29T02:12:03.577Z,22.79
2016-06-29T02:13:03.538Z,22.78
2016-06-29T02:14:03.519Z,22.78
2016-06-29T02:15:03.497Z,22.78
2016-06-29T02:16:03.487Z,22.78
2016-06-29T02:17:03.479Z,22.76
2016-06-29T02:18:02.851Z,22.75
2016-06-29T02:19:03.469Z,22.85
2016-06-29T02:20:03.429Z,22.79
2016-06-29T02:21:03.396Z,22.82
2016-06-29T02:22:03.401Z,22.78
2016-06-29T02:23:03.409Z,22.78
2016-06-29T02:24:03.385Z,22.75
2016-06-29T02:25:03.360Z,22.81
2016-06-29T02:26:03.338Z,22.85
2016-06-29T02:27:03.324Z,22.78
2016-06-29T02:28:03.330Z,22.75
2016-06-29T02:29:03.303Z,22.75
2016-06-29T02:30:03.277Z,22.76
2016-06-29T02:31:03.278Z,22.78
2016-06-29T02:32:03.247Z,22.78
2016-06-29T02:33:03.236Z,22.78
2016-06-29T02:34:03.230Z,22.85
2016-06-29T02:35:03.220Z,22.78
2016-06-29T02:36:03.190Z,22.78
2016-06-29T02:37:03.170Z,22.76
2016-06-29T02:38:03.190Z,22.75
2016-06-29T02:39:03.143Z,22.75
2016-06-29T02:40:03.137Z,22.78
2016-06-29T02:41:03.128Z,22.76
2016-06-29T02:42:02.533Z,22.76
2016-06-29T02:43:03.093Z,22.76
2016-06-29T02:44:03.080Z,22.79
2016-06-29T02:45:03.067Z,22.79
2016-06-29T02:46:03.037Z,22.81
2016-06-29T02:47:03.024Z,22.76
2016-06-29T02:48:03.026Z,22.79
2016-06-29T02:49:03.004Z,22.84
2016-06-29T02:50:02.983Z,22.76
2016-06-29T02:51:02.978Z,22.81
2016-06-29T02:52:02.362Z,22.84
2016-06-29T02:53:02.967Z,22.75
2016-06-29T02:54:02.938Z,22.76
2016-06-29T02:55:02.911Z,22.79
2016-06-29T02:56:02.918Z,22.79
2016-06-29T02:57:02.895Z,22.72
2016-06-29T02:58:02.881Z,22.76
2016-06-29T02:59:02.855Z,22.79
2016-06-29T03:00:02.238Z,22.78
2016-06-29T03:01:02.833Z,22.78
2016-06-29T03:02:02.814Z,22.7
2016-06-29T03:03:02.807Z,22.69
2016-06-29T03:04:02.787Z,22.75
2016-06-29T03:05:02.165Z,22.75
2016-06-29T03:06:02.150Z,22.67
2016-06-29T03:07:02.133Z,22.75
2016-06-29T03:08:02.729Z,22.74
2016-06-29T03:09:02.720Z,22.75
2016-06-29T03:10:02.114Z,22.7
2016-06-29T03:11:02.683Z,22.74
2016-06-29T03:12:02.078Z,22.76
2016-06-29T03:13:02.663Z,22.67
2016-06-29T03:14:02.046Z,22.7
2016-06-29T03:15:02.617Z,22.72
2016-06-29T03:16:02.015Z,22.7
2016-06-29T03:17:02.595Z,22.75
2016-06-29T03:18:02.592Z,22.75
2016-06-29T03:19:02.584Z,22.69
2016-06-29T03:20:02.581Z,22.75
2016-06-29T03:21:02.575Z,22.84
2016-06-29T03:22:02.533Z,22.69
2016-06-29T03:23:02.512Z,22.75
2016-06-29T03:24:02.497Z,22.74
2016-06-29T03:25:02.488Z,22.72
2016-06-29T03:26:02.458Z,22.69
2016-06-29T03:27:02.442Z,22.7
2016-06-29T03:28:02.438Z,22.67
2016-06-29T03:29:02.456Z,22.66
2016-06-29T03:30:02.446Z,22.7
2016-06-29T03:31:02.383Z,22.72
2016-06-29T03:32:02.386Z,22.7
2016-06-29T03:33:02.384Z,22.69
2016-06-29T03:34:01.755Z,22.67
2016-06-29T03:35:02.339Z,22.74
2016-06-29T03:36:02.314Z,22.66
2016-06-29T03:37:02.294Z,22.69
2016-06-29T03:38:02.291Z,22.67
2016-06-29T03:39:02.268Z,22.69
2016-06-29T03:40:02.271Z,22.66
2016-06-29T03:41:02.245Z,22.66
2016-06-29T03:42:02.254Z,22.7
2016-06-29T03:43:02.204Z,22.64
2016-06-29T03:44:02.192Z,22.67
2016-06-29T03:45:02.186Z,22.66
2016-06-29T03:46:02.174Z,22.67
2016-06-29T03:47:02.196Z,22.7
2016-06-29T03:48:02.140Z,22.76
2016-06-29T03:49:02.133Z,22.7
2016-06-29T03:50:01.506Z,22.76
2016-06-29T03:51:01.511Z,22.7
2016-06-29T03:52:02.085Z,22.72
2016-06-29T03:53:02.063Z,22.72
2016-06-29T03:54:02.060Z,22.66
2016-06-29T03:55:02.044Z,22.74
2016-06-29T03:56:02.019Z,22.72
2016-06-29T03:57:02.023Z,22.76
2016-06-29T03:58:02.007Z,22.75
2016-06-29T03:59:01.978Z,22.74
2016-06-29T04:00:01.985Z,22.69
2016-06-29T04:01:01.358Z,22.72
2016-06-29T04:02:01.943Z,22.69
2016-06-29T04:03:01.920Z,22.78
2016-06-29T04:04:01.929Z,22.76
2016-06-29T04:05:01.891Z,22.76
2016-06-29T04:06:01.886Z,22.76
2016-06-29T04:07:01.868Z,22.79
2016-06-29T04:08:01.275Z,22.72
2016-06-29T04:09:01.845Z,22.75
2016-06-29T04:10:01.855Z,22.69
2016-06-29T04:11:01.802Z,22.75
2016-06-29T04:12:01.827Z,22.75
2016-06-29T04:13:01.805Z,22.69
2016-06-29T04:14:01.758Z,22.74
2016-06-29T04:15:01.770Z,22.72
2016-06-29T04:16:01.730Z,22.72
2016-06-29T04:17:01.714Z,22.7
2016-06-29T04:18:01.712Z,22.7
2016-06-29T04:19:01.691Z,22.7
2016-06-29T04:20:01.088Z,22.7
2016-06-29T04:21:01.664Z,22.69
2016-06-29T04:22:01.646Z,22.78
2016-06-29T04:23:01.624Z,22.7
2016-06-29T04:24:01.610Z,22.67
2016-06-29T04:25:01.623Z,22.69
2016-06-29T04:26:01.594Z,22.72
2016-06-29T04:27:01.562Z,22.69
2016-06-29T04:28:01.547Z,22.76
2016-06-29T04:29:01.538Z,22.75
2016-06-29T04:30:01.534Z,22.75
2016-06-29T04:31:01.513Z,22.78
2016-06-29T04:32:01.488Z,22.7
2016-06-29T04:33:01.482Z,22.74
2016-06-29T04:34:00.859Z,22.69
2016-06-29T04:35:01.461Z,22.7
2016-06-29T04:36:00.821Z,22.76
2016-06-29T04:37:01.463Z,22.76
2016-06-29T04:38:01.406Z,22.7
2016-06-29T04:39:01.388Z,22.69
2016-06-29T04:40:01.382Z,22.7
2016-06-29T04:41:01.369Z,22.74
2016-06-29T04:42:01.341Z,22.69
2016-06-29T04:43:01.354Z,22.66
2016-06-29T04:44:01.329Z,22.67
2016-06-29T04:45:01.327Z,22.67
2016-06-29T04:46:01.282Z,22.66
2016-06-29T04:47:01.267Z,22.63
2016-06-29T04:48:00.656Z,22.67
2016-06-29T04:49:01.244Z,22.67
2016-06-29T04:50:01.251Z,22.69
2016-06-29T04:51:01.216Z,22.63
2016-06-29T04:52:00.645Z,22.61
2016-06-29T04:53:01.192Z,22.59
2016-06-29T04:54:01.177Z,22.63
2016-06-29T04:55:01.156Z,22.61
2016-06-29T04:56:01.143Z,22.59
2016-06-29T04:57:01.192Z,22.64
2016-06-29T04:58:01.111Z,22.67
2016-06-29T04:59:01.095Z,22.61
2016-06-29T05:00:01.094Z,22.64
2016-06-29T05:01:01.065Z,22.66
2016-06-29T05:02:01.062Z,22.59
2016-06-29T05:03:01.047Z,22.61
2016-06-29T05:04:01.036Z,22.57
2016-06-29T05:05:01.029Z,22.56
2016-06-29T05:06:01.029Z,22.59
2016-06-29T05:07:00.994Z,22.57
2016-06-29T05:08:00.981Z,22.6
2016-06-29T05:09:00.954Z,22.64
2016-06-29T05:10:00.934Z,22.61
2016-06-29T05:11:00.937Z,22.6
2016-06-29T05:12:00.899Z,22.56
2016-06-29T05:13:00.901Z,22.6
2016-06-29T05:14:00.881Z,22.6
2016-06-29T05:15:00.869Z,22.56
2016-06-29T05:16:00.842Z,22.59
2016-06-29T05:17:00.823Z,22.6
2016-06-29T05:18:00.827Z,22.6
2016-06-29T05:19:00.809Z,22.56
2016-06-29T05:20:00.794Z,22.57
2016-06-29T05:21:00.776Z,22.6
2016-06-29T05:22:00.792Z,22.51
2016-06-29T05:23:00.753Z,22.57
2016-06-29T05:24:00.740Z,22.48
2016-06-29T05:25:00.710Z,22.57
2016-06-29T05:26:00.711Z,22.51
2016-06-29T05:27:00.693Z,22.51
2016-06-29T05:28:00.073Z,22.63
2016-06-29T05:29:00.670Z,22.57
2016-06-29T05:30:00.647Z,22.59
2016-06-29T05:31:00.634Z,22.54
2016-06-29T05:32:00.610Z,22.52
2016-06-29T05:33:00.610Z,22.59
2016-06-29T05:34:00.589Z,22.52
2016-06-29T05:35:00.586Z,22.6
2016-06-29T05:36:00.577Z,22.46
2016-06-29T05:37:00.536Z,22.45
2016-06-29T05:37:59.915Z,22.57
2016-06-29T05:39:00.511Z,22.57
2016-06-29T05:40:00.515Z,22.49
2016-06-29T05:41:00.485Z,22.59
2016-06-29T05:42:00.486Z,22.59
2016-06-29T05:42:59.865Z,22.54
2016-06-29T05:44:00.436Z,22.48
2016-06-29T05:45:00.419Z,22.59
2016-06-29T05:46:00.393Z,22.48
2016-06-29T05:46:59.801Z,22.51
2016-06-29T05:48:00.379Z,22.52
2016-06-29T05:49:00.371Z,22.59
2016-06-29T05:50:00.344Z,22.48
2016-06-29T05:51:00.350Z,22.56
2016-06-29T05:52:00.314Z,22.48
2016-06-29T05:53:00.294Z,22.57
2016-06-29T05:54:00.286Z,22.56
2016-06-29T05:55:00.276Z,22.54
2016-06-29T05:56:00.253Z,22.49
2016-06-29T05:57:00.227Z,22.66
2016-06-29T05:58:00.232Z,22.49
2016-06-29T05:59:00.218Z,22.6
2016-06-29T06:00:00.200Z,22.63
2016-06-29T06:01:00.204Z,22.6
2016-06-29T06:02:00.185Z,22.57
2016-06-29T06:03:00.171Z,22.61
2016-06-29T06:04:00.135Z,22.57
2016-06-29T06:05:00.134Z,22.57
2016-06-29T06:06:00.137Z,22.6
2016-06-29T06:06:59.494Z,22.57
2016-06-29T06:08:00.077Z,22.61
2016-06-29T06:09:00.107Z,22.59
2016-06-29T06:09:59.448Z,22.61
2016-06-29T06:11:00.062Z,22.63
2016-06-29T06:12:00.033Z,22.57
2016-06-29T06:13:00.198Z,22.57
2016-06-29T06:13:59.990Z,22.59
2016-06-29T06:14:59.963Z,22.61
2016-06-29T06:15:59.365Z,22.6
2016-06-29T06:16:59.936Z,22.6
2016-06-29T06:17:59.970Z,22.57
2016-06-29T06:18:59.951Z,22.64
2016-06-29T06:19:59.921Z,22.59
2016-06-29T06:20:59.883Z,22.57
2016-06-29T06:21:59.871Z,22.6
2016-06-29T06:22:59.865Z,22.57
2016-06-29T06:23:59.855Z,22.63
2016-06-29T06:24:59.819Z,22.6
2016-06-29T06:25:59.262Z,22.57
2016-06-29T06:26:59.801Z,22.64
2016-06-29T06:27:59.792Z,22.61
2016-06-29T06:28:59.784Z,22.59
2016-06-29T06:29:59.751Z,22.59
2016-06-29T06:30:59.756Z,22.63
2016-06-29T06:31:59.716Z,22.64
2016-06-29T06:32:59.709Z,22.57
2016-06-29T06:33:59.703Z,22.57
2016-06-29T06:34:59.669Z,22.54
2016-06-29T06:35:59.073Z,22.63
2016-06-29T06:36:59.055Z,22.57
2016-06-29T06:37:59.645Z,22.59
2016-06-29T06:38:59.645Z,22.57
2016-06-29T06:39:59.605Z,22.63
2016-06-29T06:40:59.598Z,22.61
2016-06-29T06:41:59.051Z,22.66
2016-06-29T06:42:59.558Z,22.57
2016-06-29T06:43:59.558Z,22.19
2016-06-29T06:44:59.525Z,21.66
2016-06-29T06:45:59.533Z,21.27
2016-06-29T06:46:59.500Z,21.24
2016-06-29T06:47:59.494Z,21.01
2016-06-29T06:48:59.463Z,20.93
2016-06-29T06:49:59.465Z,20.78
2016-06-29T06:50:59.450Z,20.44
2016-06-29T06:51:58.848Z,20.48
2016-06-29T06:52:59.411Z,20.31
2016-06-29T06:53:59.402Z,20.16
2016-06-29T06:54:59.377Z,20.2
2016-06-29T06:55:59.367Z,20.13
2016-06-29T06:56:59.412Z,20.17
2016-06-29T06:57:59.351Z,20.37
2016-06-29T06:58:59.324Z,20.27
2016-06-29T06:59:58.709Z,20.2
2016-06-29T07:00:59.307Z,20.27
2016-06-29T07:01:59.274Z,20.35
2016-06-29T07:02:59.253Z,20.54
2016-06-29T07:03:59.261Z,20.48
2016-06-29T07:04:59.231Z,20.26
2016-06-29T07:05:59.203Z,20.19
2016-06-29T07:06:59.191Z,19.95
2016-06-29T07:07:59.191Z,19.97
2016-06-29T07:08:59.162Z,19.98
2016-06-29T07:09:58.550Z,19.89
2016-06-29T07:10:59.149Z,20.04
2016-06-29T07:11:59.133Z,20.35
2016-06-29T07:12:59.095Z,20.66
2016-06-29T07:13:59.083Z,20.87
2016-06-29T07:14:59.077Z,20.96
2016-06-29T07:15:59.050Z,21.11
2016-06-29T07:16:59.107Z,21.11
2016-06-29T07:17:59.012Z,21.3
2016-06-29T07:18:59.005Z,21.31
2016-06-29T07:19:58.984Z,21.27
2016-06-29T07:20:59.010Z,21.37
2016-06-29T07:21:58.971Z,21.38
2016-06-29T07:22:58.942Z,21.38
2016-06-29T07:23:58.948Z,21.36
2016-06-29T07:24:58.310Z,21.37
2016-06-29T07:25:58.903Z,21.45
2016-06-29T07:26:58.891Z,21.51
2016-06-29T07:27:58.863Z,21.49
2016-06-29T07:28:58.963Z,21.45
2016-06-29T07:29:58.835Z,21.55
2016-06-29T07:30:58.838Z,21.51
2016-06-29T07:31:58.824Z,21.53
2016-06-29T07:32:58.782Z,21.51
2016-06-29T07:33:58.790Z,21.63
2016-06-29T07:34:58.767Z,21.61
2016-06-29T07:35:58.767Z,21.63
2016-06-29T07:36:58.722Z,21.68
2016-06-29T07:37:58.723Z,21.63
2016-06-29T07:38:58.694Z,21.63
2016-06-29T07:39:58.684Z,21.63
2016-06-29T07:40:58.694Z,21.66
2016-06-29T07:41:58.676Z,21.58
2016-06-29T07:42:58.690Z,21.64
2016-06-29T07:43:58.631Z,21.7
2016-06-29T07:44:58.582Z,21.67
2016-06-29T07:45:58.593Z,21.7
2016-06-29T07:46:58.569Z,21.68
2016-06-29T07:47:58.554Z,21.63
2016-06-29T07:48:58.545Z,21.71
2016-06-29T07:49:58.538Z,21.7
2016-06-29T07:50:58.502Z,21.71
2016-06-29T07:51:58.525Z,21.68
2016-06-29T07:52:58.476Z,21.75
2016-06-29T07:53:58.463Z,21.77
2016-06-29T07:54:58.435Z,21.73
2016-06-29T07:55:58.467Z,21.83
2016-06-29T07:56:58.413Z,21.74
2016-06-29T07:57:58.400Z,21.74
2016-06-29T07:58:58.375Z,21.73
2016-06-29T07:59:58.388Z,21.74
2016-06-29T08:00:58.353Z,21.74
2016-06-29T08:01:58.346Z,21.77
2016-06-29T08:02:58.317Z,21.71
2016-06-29T08:03:58.326Z,21.74
2016-06-29T08:04:58.303Z,21.81
2016-06-29T08:05:58.282Z,21.85
2016-06-29T08:06:57.782Z,21.89
2016-06-29T08:07:58.251Z,21.93
2016-06-29T08:08:58.223Z,21.94
2016-06-29T08:09:58.212Z,21.9
2016-06-29T08:10:58.192Z,21.94
2016-06-29T08:11:58.192Z,21.89
2016-06-29T08:12:58.200Z,22.01
2016-06-29T08:13:58.146Z,21.94
2016-06-29T08:14:58.153Z,21.89
2016-06-29T08:15:58.129Z,21.86
2016-06-29T08:16:58.112Z,21.89
2016-06-29T08:17:58.090Z,22.02
2016-06-29T08:18:58.083Z,22.11
2016-06-29T08:19:58.060Z,22.19
2016-06-29T08:20:58.046Z,22.2
2016-06-29T08:22:00.903Z,22.26
2016-06-29T08:22:58.025Z,22.31
2016-06-29T08:23:58.018Z,22.33
2016-06-29T08:24:57.995Z,22.36
2016-06-29T08:25:57.360Z,22.36
2016-06-29T08:26:57.968Z,22.33
2016-06-29T08:27:57.953Z,22.33
2016-06-29T08:28:57.931Z,22.39
2016-06-29T08:29:57.935Z,22.31
2016-06-29T08:30:57.306Z,22.33
2016-06-29T08:31:57.873Z,22.31
2016-06-29T08:32:57.882Z,22.41
2016-06-29T08:33:57.891Z,22.31
2016-06-29T08:34:57.864Z,22.42
2016-06-29T08:35:57.821Z,22.38
2016-06-29T08:36:57.797Z,22.33
2016-06-29T08:37:57.800Z,22.41
2016-06-29T08:38:57.794Z,22.35
2016-06-29T08:39:57.754Z,22.35
2016-06-29T08:40:57.782Z,22.36
2016-06-29T08:41:57.755Z,22.45
2016-06-29T08:42:57.122Z,22.54
2016-06-29T08:43:57.701Z,22.49
2016-06-29T08:44:57.693Z,22.54
2016-06-29T08:45:57.670Z,22.59
2016-06-29T08:46:57.658Z,22.56
2016-06-29T08:47:57.651Z,22.56
2016-06-29T08:48:57.622Z,22.48
2016-06-29T08:49:57.620Z,22.52
2016-06-29T08:50:57.591Z,22.52
2016-06-29T08:51:57.587Z,22.54
2016-06-29T08:52:57.573Z,22.51
2016-06-29T08:53:57.555Z,22.45
2016-06-29T08:54:57.535Z,22.48
2016-06-29T08:55:57.514Z,22.56
2016-06-29T08:56:57.511Z,22.56
2016-06-29T08:57:57.485Z,22.57
2016-06-29T08:58:57.467Z,22.46
2016-06-29T08:59:57.465Z,22.54
2016-06-29T09:00:57.458Z,22.61
2016-06-29T09:01:57.419Z,22.48
2016-06-29T09:02:57.450Z,22.6
2016-06-29T09:03:57.402Z,22.51
2016-06-29T09:04:57.373Z,22.57
2016-06-29T09:05:57.361Z,22.63
2016-06-29T09:06:57.365Z,22.6
2016-06-29T09:07:57.326Z,22.59
2016-06-29T09:08:57.321Z,22.56
2016-06-29T09:09:57.298Z,22.59
2016-06-29T09:10:57.286Z,22.61
2016-06-29T09:11:57.274Z,22.64
2016-06-29T09:12:57.257Z,22.61
2016-06-29T09:13:57.284Z,22.61
2016-06-29T09:14:57.225Z,22.66
2016-06-29T09:15:57.214Z,22.64
2016-06-29T09:16:57.219Z,22.7
2016-06-29T09:17:57.180Z,22.66
2016-06-29T09:18:57.158Z,22.66
2016-06-29T09:19:57.156Z,22.69
2016-06-29T09:20:57.153Z,22.69
2016-06-29T09:21:57.135Z,22.74
2016-06-29T09:22:57.127Z,22.76
2016-06-29T09:23:57.105Z,22.7
2016-06-29T09:24:57.085Z,22.72
2016-06-29T09:25:57.078Z,22.64
2016-06-29T09:26:57.053Z,22.76
2016-06-29T09:27:57.034Z,22.74
2016-06-29T09:28:57.022Z,22.67
2016-06-29T09:29:57.009Z,22.69
2016-06-29T09:30:57.003Z,22.72
2016-06-29T09:31:56.989Z,22.7
2016-06-29T09:32:56.363Z,22.7
2016-06-29T09:33:56.952Z,22.72
2016-06-29T09:34:56.938Z,22.75
2016-06-29T09:35:56.912Z,22.74
2016-06-29T09:36:56.904Z,22.78
2016-06-29T09:37:56.894Z,22.79
2016-06-29T09:38:56.286Z,22.74
2016-06-29T09:39:56.929Z,22.78
2016-06-29T09:40:56.855Z,22.81
2016-06-29T09:41:56.837Z,22.84
2016-06-29T09:42:56.846Z,22.85
2016-06-29T09:43:56.802Z,22.81
2016-06-29T09:44:56.831Z,22.79
2016-06-29T09:45:56.781Z,22.82
2016-06-29T09:46:56.773Z,22.86
2016-06-29T09:47:56.735Z,22.81
2016-06-29T09:48:56.771Z,22.84
2016-06-29T09:49:56.714Z,22.79
2016-06-29T09:50:56.722Z,22.81
2016-06-29T09:51:56.692Z,22.86
2016-06-29T09:52:56.667Z,22.84
2016-06-29T09:53:56.642Z,22.84
2016-06-29T09:54:56.656Z,22.85
2016-06-29T09:55:56.622Z,22.78
2016-06-29T09:56:56.625Z,22.81
2016-06-29T09:57:56.593Z,22.86
2016-06-29T09:58:56.586Z,22.88
2016-06-29T09:59:56.559Z,22.86
2016-06-29T10:00:56.564Z,22.81
2016-06-29T10:01:56.561Z,22.84
2016-06-29T10:02:56.527Z,22.85
2016-06-29T10:03:56.499Z,22.82
2016-06-29T10:04:56.486Z,22.82
2016-06-29T10:05:56.473Z,22.82
2016-06-29T10:06:55.854Z,22.85
2016-06-29T10:07:56.444Z,22.88
2016-06-29T10:08:56.441Z,22.85
2016-06-29T10:09:56.418Z,22.88
2016-06-29T10:10:55.792Z,22.89
2016-06-29T10:11:56.427Z,22.88
2016-06-29T10:12:56.381Z,22.88
2016-06-29T10:13:56.363Z,22.85
2016-06-29T10:14:55.785Z,22.89
2016-06-29T10:15:56.366Z,22.88
2016-06-29T10:16:56.326Z,22.88
2016-06-29T10:17:56.302Z,22.84
2016-06-29T10:18:56.287Z,22.86
2016-06-29T10:19:56.300Z,22.88
2016-06-29T10:20:56.262Z,22.84
2016-06-29T10:21:56.254Z,22.84
2016-06-29T10:22:56.225Z,22.88
2016-06-29T10:23:56.218Z,22.88
2016-06-29T10:24:56.198Z,23
2016-06-29T10:25:56.181Z,22.93
2016-06-29T10:26:56.159Z,23
2016-06-29T10:27:56.143Z,22.94
2016-06-29T10:28:56.129Z,22.99
2016-06-29T10:29:56.121Z,23
2016-06-29T10:30:56.102Z,23
2016-06-29T10:31:56.083Z,23
2016-06-29T10:32:56.083Z,22.97
2016-06-29T10:33:56.069Z,22.99
2016-06-29T10:34:56.048Z,22.97
2016-06-29T10:35:56.039Z,22.97
2016-06-29T10:36:56.034Z,23.06
2016-06-29T10:37:56.009Z,22.99
2016-06-29T10:38:55.987Z,23
2016-06-29T10:39:55.991Z,22.99
2016-06-29T10:40:55.974Z,22.99
2016-06-29T10:41:55.951Z,22.99
2016-06-29T10:42:55.929Z,23.06
2016-06-29T10:43:55.931Z,23
2016-06-29T10:44:55.907Z,22.96
2016-06-29T10:45:55.894Z,23
2016-06-29T10:46:55.868Z,23.06
2016-06-29T10:47:55.862Z,22.94
2016-06-29T10:48:55.838Z,23.03
2016-06-29T10:49:55.831Z,23
2016-06-29T10:50:55.844Z,23.03
2016-06-29T10:51:55.802Z,22.89
2016-06-29T10:52:55.782Z,22.82
2016-06-29T10:53:55.762Z,22.84
2016-06-29T10:54:55.768Z,22.86
2016-06-29T10:55:55.739Z,22.89
2016-06-29T10:56:55.744Z,22.88
2016-06-29T10:57:55.713Z,22.89
2016-06-29T10:58:55.695Z,22.97
2016-06-29T10:59:55.692Z,22.89
2016-06-29T11:00:55.676Z,22.82
2016-06-29T11:01:55.657Z,22.81
2016-06-29T11:02:55.667Z,22.6
2016-06-29T11:03:55.634Z,22.61
2016-06-29T11:04:55.654Z,22.52
2016-06-29T11:05:55.606Z,22.49
2016-06-29T11:06:55.580Z,22.41
2016-06-29T11:07:55.571Z,22.45
2016-06-29T11:08:55.562Z,22.35
2016-06-29T11:09:55.539Z,22.41
2016-06-29T11:10:55.541Z,22.31
2016-06-29T11:11:55.536Z,22.35
2016-06-29T11:12:55.496Z,22.35
2016-06-29T11:13:55.468Z,22.29
2016-06-29T11:14:55.466Z,22.3
2016-06-29T11:15:55.440Z,22.26
2016-06-29T11:16:55.457Z,22.29
2016-06-29T11:17:55.430Z,22.38
2016-06-29T11:18:55.401Z,22.27
2016-06-29T11:19:55.459Z,22.3
2016-06-29T11:20:55.357Z,22.27
2016-06-29T11:21:55.355Z,22.26
2016-06-29T11:22:55.332Z,22.3
2016-06-29T11:23:55.334Z,22.17
2016-06-29T11:24:55.306Z,22.12
2016-06-29T11:25:55.299Z,22.14
2016-06-29T11:26:55.278Z,22.14
2016-06-29T11:27:55.273Z,22.05
2016-06-29T11:28:55.258Z,22.09
2016-06-29T11:29:55.246Z,22.02
2016-06-29T11:30:55.225Z,22.04
2016-06-29T11:31:55.236Z,22.08
2016-06-29T11:32:55.195Z,22.12
2016-06-29T11:33:55.174Z,22.12
2016-06-29T11:34:55.183Z,22.2
2016-06-29T11:35:55.158Z,22.17
2016-06-29T11:36:55.135Z,22.21
2016-06-29T11:37:55.111Z,22.21
2016-06-29T11:38:55.125Z,22.3
2016-06-29T11:39:54.496Z,22.36
2016-06-29T11:40:55.066Z,22.31
2016-06-29T11:41:55.079Z,22.39
2016-06-29T11:42:55.099Z,22.38
2016-06-29T11:43:55.047Z,22.35
2016-06-29T11:44:55.023Z,22.35
2016-06-29T11:45:54.413Z,22.46
2016-06-29T11:46:54.991Z,22.39
2016-06-29T11:47:54.957Z,22.45
2016-06-29T11:48:54.957Z,22.38
2016-06-29T11:49:54.944Z,22.39
2016-06-29T11:50:54.930Z,22.3
2016-06-29T11:51:54.926Z,22.36
2016-06-29T11:52:54.895Z,22.33
2016-06-29T11:53:54.889Z,22.33
2016-06-29T11:54:54.867Z,22.29
2016-06-29T11:55:54.843Z,22.26
2016-06-29T11:56:54.846Z,22.19
2016-06-29T11:57:54.855Z,22.3
2016-06-29T11:58:54.820Z,22.27
2016-06-29T11:59:54.811Z,22.31
2016-06-29T12:00:54.810Z,22.38
2016-06-29T12:01:54.763Z,22.35
2016-06-29T12:02:54.775Z,22.3
2016-06-29T12:03:54.739Z,22.3
2016-06-29T12:04:54.706Z,22.3
2016-06-29T12:05:54.704Z,22.41
2016-06-29T12:06:54.090Z,22.42
2016-06-29T12:07:54.691Z,22.42
2016-06-29T12:08:54.649Z,22.35
2016-06-29T12:09:54.650Z,22.33
2016-06-29T12:10:54.638Z,22.35
2016-06-29T12:11:54.623Z,22.35
2016-06-29T12:12:54.594Z,22.36
2016-06-29T12:13:54.582Z,22.38
2016-06-29T12:14:54.583Z,22.33
2016-06-29T12:15:54.543Z,22.31
2016-06-29T12:16:54.545Z,22.23
2016-06-29T12:17:54.511Z,22.35
2016-06-29T12:18:54.512Z,22.3
2016-06-29T12:19:54.482Z,22.33
2016-06-29T12:20:54.469Z,22.38
2016-06-29T12:21:53.882Z,22.35
2016-06-29T12:22:54.439Z,22.54
2016-06-29T12:23:54.443Z,22.51
2016-06-29T12:24:54.409Z,22.48
2016-06-29T12:25:54.402Z,22.48
2016-06-29T12:26:54.383Z,22.49
2016-06-29T12:27:54.371Z,22.46
2016-06-29T12:28:54.342Z,22.46
2016-06-29T12:29:54.350Z,22.59
2016-06-29T12:30:54.333Z,22.6
2016-06-29T12:31:54.309Z,22.54
2016-06-29T12:32:53.695Z,22.6
2016-06-29T12:33:54.298Z,22.61
2016-06-29T12:34:54.686Z,22.61
2016-06-29T12:35:54.238Z,22.7
2016-06-29T12:36:54.231Z,22.67
2016-06-29T12:37:54.230Z,22.69
2016-06-29T12:38:53.602Z,22.59
2016-06-29T12:39:54.189Z,22.52
2016-06-29T12:40:54.171Z,22.54
2016-06-29T12:41:54.151Z,22.56
2016-06-29T12:42:54.134Z,22.57
2016-06-29T12:43:54.122Z,22.48
2016-06-29T12:44:54.118Z,22.59
2016-06-29T12:45:54.099Z,22.56
2016-06-29T12:46:54.090Z,22.59
2016-06-29T12:47:54.077Z,22.6
2016-06-29T12:48:54.052Z,22.66
2016-06-29T12:49:54.050Z,22.79
2016-06-29T12:50:54.022Z,22.79
2016-06-29T12:51:54.029Z,22.88
2016-06-29T12:52:54.009Z,22.89
2016-06-29T12:53:53.975Z,22.82
2016-06-29T12:54:53.969Z,22.85